createdAt,value
2022-12-27T00:00:07.940Z,9.27
2022-12-27T00:01:47.648Z,9.25
2022-12-27T00:03:27.424Z,9.26
2022-12-27T00:05:07.173Z,9.22
2022-12-27T00:06:46.934Z,9.22
2022-12-27T00:08:26.724Z,9.2
2022-12-27T00:10:06.482Z,9.18
2022-12-27T00:11:46.309Z,9.18
2022-12-27T00:13:26.022Z,9.18
2022-12-27T00:15:05.782Z,9.16
2022-12-27T00:16:45.545Z,9.14
2022-12-27T00:18:25.346Z,9.14
2022-12-27T00:20:05.108Z,9.12
2022-12-27T00:21:44.873Z,9.1
2022-12-27T00:23:24.623Z,9.09
2022-12-27T00:25:04.378Z,9.1
2022-12-27T00:26:44.204Z,9.08
2022-12-27T00:28:23.924Z,9.06
2022-12-27T00:30:03.675Z,9.07
2022-12-27T00:31:43.451Z,9.06
2022-12-27T00:33:23.218Z,9.05
2022-12-27T00:35:03.054Z,9.02
2022-12-27T00:36:42.767Z,9.02
2022-12-27T00:38:22.528Z,8.99
2022-12-27T00:40:02.293Z,8.97
2022-12-27T00:41:42.057Z,8.97
2022-12-27T00:43:21.825Z,8.96
2022-12-27T00:45:01.623Z,8.95
2022-12-27T00:46:41.337Z,8.93
2022-12-27T00:48:21.112Z,8.93
2022-12-27T00:50:00.881Z,8.92
2022-12-27T00:51:40.681Z,8.88
2022-12-27T00:53:20.402Z,8.89
2022-12-27T00:55:00.169Z,8.87
2022-12-27T00:56:39.953Z,8.85
2022-12-27T00:58:19.750Z,8.84
2022-12-27T00:59:59.464Z,8.84
2022-12-27T01:01:39.308Z,8.81
2022-12-27T01:03:18.997Z,8.82
2022-12-27T01:04:58.752Z,8.81
2022-12-27T01:06:38.514Z,8.78
2022-12-27T01:08:18.339Z,8.76
2022-12-27T01:09:58.041Z,8.77
2022-12-27T01:11:37.808Z,8.76
2022-12-27T01:13:17.567Z,8.74
2022-12-27T01:14:57.366Z,8.72
2022-12-27T01:16:37.104Z,8.68
2022-12-27T01:18:16.873Z,8.68
2022-12-27T01:19:56.635Z,8.66
2022-12-27T01:21:36.513Z,8.67
2022-12-27T01:23:16.186Z,8.63
2022-12-27T01:24:55.945Z,8.64
2022-12-27T01:26:35.700Z,8.63
2022-12-27T01:28:15.454Z,8.62
2022-12-27T01:29:55.213Z,8.59
2022-12-27T01:31:34.980Z,8.56
2022-12-27T01:33:14.755Z,8.55
2022-12-27T01:34:54.522Z,8.54
2022-12-27T01:36:34.385Z,8.54
2022-12-27T01:38:14.074Z,8.53
2022-12-27T01:39:53.810Z,8.51
2022-12-27T01:41:33.562Z,8.49
2022-12-27T01:43:13.343Z,8.47
2022-12-27T01:44:53.122Z,8.45
2022-12-27T01:46:32.864Z,8.43
2022-12-27T01:48:12.620Z,8.43
2022-12-27T01:49:52.401Z,8.42
2022-12-27T01:51:32.156Z,8.41
2022-12-27T01:53:11.927Z,8.38
2022-12-27T01:54:51.716Z,8.37
2022-12-27T01:56:31.461Z,8.35
2022-12-27T01:58:11.217Z,8.33
2022-12-27T01:59:50.984Z,8.32
2022-12-27T02:01:30.745Z,8.32
2022-12-27T02:03:10.513Z,8.29
2022-12-27T02:04:50.284Z,8.27
2022-12-27T02:06:30.036Z,8.26
2022-12-27T02:08:09.801Z,8.25
2022-12-27T02:09:49.569Z,8.22
2022-12-27T02:11:29.329Z,8.21
2022-12-27T02:13:09.127Z,8.2
2022-12-27T02:14:48.871Z,8.17
2022-12-27T02:16:28.620Z,8.17
2022-12-27T02:18:08.550Z,8.14
2022-12-27T02:19:48.152Z,8.14
2022-12-27T02:21:27.914Z,8.1
2022-12-27T02:23:07.670Z,8.1
2022-12-27T02:24:47.440Z,8.07
2022-12-27T02:26:27.207Z,8.05
2022-12-27T02:28:06.964Z,8.06
2022-12-27T02:29:46.759Z,8.03
2022-12-27T02:31:26.493Z,8
2022-12-27T02:33:06.270Z,8
2022-12-27T02:34:46.030Z,7.98
2022-12-27T02:36:25.793Z,7.96
2022-12-27T02:38:05.550Z,7.96
2022-12-27T02:39:45.310Z,7.96
2022-12-27T02:41:25.078Z,7.94
2022-12-27T02:43:04.840Z,7.92
2022-12-27T02:44:44.618Z,7.89
2022-12-27T02:46:24.374Z,7.89
2022-12-27T02:48:04.150Z,7.88
2022-12-27T02:49:43.923Z,7.86
2022-12-27T02:51:23.686Z,7.84
2022-12-27T02:53:03.448Z,7.82
2022-12-27T02:54:43.224Z,7.82
2022-12-27T02:56:22.975Z,7.79
2022-12-27T02:58:02.744Z,7.76
2022-12-27T02:59:42.512Z,7.78
2022-12-27T03:01:22.284Z,7.76
2022-12-27T03:03:02.065Z,7.76
2022-12-27T03:04:41.818Z,7.71
2022-12-27T03:06:21.590Z,7.7
2022-12-27T03:08:01.373Z,7.69
2022-12-27T03:09:41.122Z,7.69
2022-12-27T03:11:20.879Z,7.65
2022-12-27T03:13:00.680Z,7.65
2022-12-27T03:14:40.422Z,7.65
2022-12-27T03:16:20.183Z,7.61
2022-12-27T03:17:59.956Z,7.62
2022-12-27T03:19:39.721Z,7.59
2022-12-27T03:21:19.502Z,7.59
2022-12-27T03:22:59.260Z,7.55
2022-12-27T03:24:39.016Z,7.55
2022-12-27T03:26:18.788Z,7.55
2022-12-27T03:27:58.556Z,7.51
2022-12-27T03:29:38.321Z,7.51
2022-12-27T03:31:18.090Z,7.48
2022-12-27T03:32:57.852Z,7.48
2022-12-27T03:34:37.678Z,7.47
2022-12-27T03:36:17.399Z,7.45
2022-12-27T03:37:57.161Z,7.44
2022-12-27T03:39:36.930Z,7.42
2022-12-27T03:41:16.692Z,7.4
2022-12-27T03:42:56.476Z,7.38
2022-12-27T03:44:36.231Z,7.36
2022-12-27T03:46:15.991Z,7.36
2022-12-27T03:47:55.771Z,7.33
2022-12-27T03:49:35.524Z,7.33
2022-12-27T03:51:15.295Z,7.34
2022-12-27T03:52:55.061Z,7.31
2022-12-27T03:54:34.823Z,7.28
2022-12-27T03:56:14.662Z,7.29
2022-12-27T03:57:54.344Z,7.28
2022-12-27T03:59:34.115Z,7.26
2022-12-27T04:01:13.863Z,7.25
2022-12-27T04:02:53.638Z,7.23
2022-12-27T04:04:33.399Z,7.2
2022-12-27T04:06:13.164Z,7.18
2022-12-27T04:07:52.937Z,7.17
2022-12-27T04:09:32.690Z,7.18
2022-12-27T04:11:12.468Z,7.16
2022-12-27T04:12:52.220Z,7.15
2022-12-27T04:14:31.989Z,7.13
2022-12-27T04:16:11.767Z,7.13
2022-12-27T04:17:51.515Z,7.12
2022-12-27T04:19:31.282Z,7.08
2022-12-27T04:21:11.049Z,7.08
2022-12-27T04:22:50.829Z,7.07
2022-12-27T04:24:30.584Z,7.05
2022-12-27T04:26:10.332Z,7.05
2022-12-27T04:27:50.102Z,7.05
2022-12-27T04:29:29.877Z,7.04
2022-12-27T04:31:09.632Z,7.02
2022-12-27T04:32:49.405Z,6.99
2022-12-27T04:34:29.154Z,6.99
2022-12-27T04:36:08.925Z,6.98
2022-12-27T04:37:48.694Z,6.98
2022-12-27T04:39:28.458Z,6.95
2022-12-27T04:41:08.226Z,6.95
2022-12-27T04:42:47.989Z,6.94
2022-12-27T04:44:27.757Z,6.91
2022-12-27T04:46:07.514Z,6.91
2022-12-27T04:47:47.275Z,6.9
2022-12-27T04:49:27.057Z,6.88
2022-12-27T04:51:06.806Z,6.88
2022-12-27T04:52:46.563Z,6.87
2022-12-27T04:54:26.336Z,6.87
2022-12-27T04:56:06.103Z,6.85
2022-12-27T04:57:45.868Z,6.85
2022-12-27T04:59:25.629Z,6.82
2022-12-27T05:01:05.392Z,6.82
2022-12-27T05:02:45.147Z,6.81
2022-12-27T05:04:24.911Z,6.79
2022-12-27T05:06:04.675Z,6.77
2022-12-27T05:07:44.456Z,6.77
2022-12-27T05:09:24.220Z,6.76
2022-12-27T05:11:03.974Z,6.77
2022-12-27T05:12:43.740Z,6.74
2022-12-27T05:14:23.495Z,6.74
2022-12-27T05:16:03.272Z,6.75
2022-12-27T05:17:43.035Z,6.72
2022-12-27T05:19:22.801Z,6.72
2022-12-27T05:21:02.560Z,6.7
2022-12-27T05:22:42.399Z,6.69
2022-12-27T05:24:22.094Z,6.7
2022-12-27T05:26:01.843Z,6.68
2022-12-27T05:27:41.626Z,6.67
2022-12-27T05:29:21.436Z,6.67
2022-12-27T05:31:01.150Z,6.66
2022-12-27T05:32:40.995Z,6.64
2022-12-27T05:34:20.700Z,6.63
2022-12-27T05:36:00.442Z,6.63
2022-12-27T05:37:40.212Z,6.62
2022-12-27T05:39:19.978Z,6.61
2022-12-27T05:40:59.725Z,6.61
2022-12-27T05:42:39.659Z,6.63
2022-12-27T05:44:19.344Z,6.59
2022-12-27T05:45:59.025Z,6.6
2022-12-27T05:47:38.829Z,6.58
2022-12-27T05:49:18.555Z,6.58
2022-12-27T05:50:58.399Z,6.58
2022-12-27T05:52:38.072Z,6.58
2022-12-27T05:54:17.839Z,6.57
2022-12-27T05:55:57.607Z,6.55
2022-12-27T05:57:37.380Z,6.56
2022-12-27T05:59:17.155Z,6.54
2022-12-27T06:00:56.892Z,6.51
2022-12-27T06:02:36.758Z,6.53
2022-12-27T06:04:16.435Z,6.53
2022-12-27T06:05:56.240Z,6.5
2022-12-27T06:07:36.092Z,6.49
2022-12-27T06:09:15.797Z,6.5
2022-12-27T06:10:55.487Z,6.49
2022-12-27T06:12:35.315Z,6.48
2022-12-27T06:14:15.041Z,6.46
2022-12-27T06:15:54.775Z,6.47
2022-12-27T06:17:34.601Z,6.46
2022-12-27T06:19:14.402Z,6.45
2022-12-27T06:20:54.091Z,6.45
2022-12-27T06:22:33.871Z,6.44
2022-12-27T06:24:13.746Z,6.43
2022-12-27T06:25:53.399Z,6.42
2022-12-27T06:27:33.231Z,6.43
2022-12-27T06:29:12.927Z,6.41
2022-12-27T06:30:52.751Z,6.39
2022-12-27T06:32:32.427Z,6.4
2022-12-27T06:34:12.205Z,6.4
2022-12-27T06:35:51.964Z,6.39
2022-12-27T06:37:31.767Z,6.37
2022-12-27T06:39:11.471Z,6.4
2022-12-27T06:40:51.332Z,6.37
2022-12-27T06:42:31.008Z,6.37
2022-12-27T06:44:10.817Z,6.36
2022-12-27T06:45:50.609Z,6.35
2022-12-27T06:47:30.506Z,6.37
2022-12-27T06:49:10.154Z,6.33
2022-12-27T06:50:49.905Z,6.37
2022-12-27T06:52:29.610Z,6.37
2022-12-27T06:54:09.433Z,6.37
2022-12-27T06:55:49.121Z,6.4
2022-12-27T06:57:28.876Z,6.43
2022-12-27T06:59:08.650Z,6.45
2022-12-27T07:00:48.607Z,6.47
2022-12-27T07:04:08.075Z,6.48
2022-12-27T07:05:47.696Z,6.48
2022-12-27T07:07:27.467Z,6.53
2022-12-27T07:09:07.258Z,6.53
2022-12-27T07:10:47.055Z,6.54
2022-12-27T07:12:26.772Z,6.55
2022-12-27T07:14:06.555Z,6.56
2022-12-27T07:15:46.296Z,6.58
2022-12-27T07:17:26.053Z,6.59
2022-12-27T07:19:05.839Z,6.58
2022-12-27T07:20:45.582Z,6.59
2022-12-27T07:22:25.349Z,6.62
2022-12-27T07:24:05.137Z,6.62
2022-12-27T07:25:44.940Z,6.64
2022-12-27T07:27:24.714Z,6.64
2022-12-27T07:29:04.412Z,6.63
2022-12-27T07:30:44.181Z,6.66
2022-12-27T07:32:23.971Z,6.67
2022-12-27T07:34:03.742Z,6.67
2022-12-27T07:35:43.479Z,6.69
2022-12-27T07:37:23.263Z,6.68
2022-12-27T07:39:03.070Z,6.72
2022-12-27T07:40:42.789Z,6.72
2022-12-27T07:42:22.563Z,6.7
2022-12-27T07:44:02.429Z,6.7
2022-12-27T07:45:42.101Z,6.73
2022-12-27T07:47:21.865Z,6.75
2022-12-27T07:49:01.670Z,6.75
2022-12-27T07:50:41.385Z,6.75
2022-12-27T07:52:21.167Z,6.75
2022-12-27T07:54:00.941Z,6.73
2022-12-27T07:55:40.724Z,6.78
2022-12-27T07:57:20.474Z,6.76
2022-12-27T07:59:00.263Z,6.82
2022-12-27T08:00:40.019Z,6.82
2022-12-27T08:02:19.849Z,6.84
2022-12-27T08:03:59.609Z,6.86
2022-12-27T08:05:39.396Z,6.85
2022-12-27T08:07:19.160Z,6.87
2022-12-27T08:08:59.006Z,6.86
2022-12-27T08:10:38.658Z,6.86
2022-12-27T08:12:18.445Z,6.89
2022-12-27T08:13:58.172Z,6.89
2022-12-27T08:15:38.060Z,6.88
2022-12-27T08:17:17.789Z,6.9
2022-12-27T08:18:57.555Z,6.89
2022-12-27T08:20:37.269Z,6.9
2022-12-27T08:22:17.031Z,6.88
2022-12-27T08:23:56.868Z,6.9
2022-12-27T08:25:36.577Z,6.95
2022-12-27T08:27:16.416Z,6.92
2022-12-27T08:28:56.150Z,6.92
2022-12-27T08:30:35.908Z,6.93
2022-12-27T08:32:15.660Z,6.95
2022-12-27T08:33:55.397Z,6.97
2022-12-27T08:35:35.261Z,6.93
2022-12-27T08:37:14.943Z,6.97
2022-12-27T08:38:54.730Z,6.97
2022-12-27T08:40:34.494Z,6.99
2022-12-27T08:42:14.268Z,6.96
2022-12-27T08:43:54.195Z,7
2022-12-27T08:45:33.871Z,7
2022-12-27T08:47:13.634Z,7.04
2022-12-27T08:48:53.348Z,7.03
2022-12-27T08:50:33.104Z,7.06
2022-12-27T08:52:13.016Z,7.11
2022-12-27T08:53:52.741Z,7.1
2022-12-27T08:55:32.455Z,7.13
2022-12-27T08:57:12.278Z,7.11
2022-12-27T08:58:51.953Z,7.12
2022-12-27T09:00:31.753Z,7.14
2022-12-27T09:02:11.566Z,7.15
2022-12-27T09:03:51.307Z,7.15
2022-12-27T09:05:31.057Z,7.19
2022-12-27T09:07:10.876Z,7.17
2022-12-27T09:08:50.570Z,7.17
2022-12-27T09:10:30.334Z,7.17
2022-12-27T09:12:10.119Z,7.15
2022-12-27T09:13:49.906Z,7.19
2022-12-27T09:15:29.648Z,7.16
2022-12-27T09:17:09.417Z,7.21
2022-12-27T09:18:49.195Z,7.21
2022-12-27T09:20:28.999Z,7.22
2022-12-27T09:22:08.734Z,7.23
2022-12-27T09:23:48.521Z,7.25
2022-12-27T09:25:28.250Z,7.23
2022-12-27T09:27:08.031Z,7.26
2022-12-27T09:28:47.821Z,7.25
2022-12-27T09:30:27.595Z,7.28
2022-12-27T09:32:07.346Z,7.27
2022-12-27T09:33:47.135Z,7.29
2022-12-27T09:35:26.893Z,7.31
2022-12-27T09:37:06.659Z,7.29
2022-12-27T09:38:46.521Z,7.32
2022-12-27T09:40:26.233Z,7.31
2022-12-27T09:42:05.976Z,7.34
2022-12-27T09:43:45.742Z,7.37
2022-12-27T09:45:25.550Z,7.3
2022-12-27T09:47:05.324Z,7.34
2022-12-27T09:48:45.041Z,7.36
2022-12-27T09:50:24.818Z,7.36
2022-12-27T09:52:04.605Z,7.38
2022-12-27T09:53:44.355Z,7.47
2022-12-27T09:55:24.140Z,7.57
2022-12-27T09:57:03.900Z,7.71
2022-12-27T09:58:43.784Z,7.83
2022-12-27T10:00:23.533Z,7.93
2022-12-27T10:02:03.277Z,8.05
2022-12-27T10:03:43.075Z,8.14
2022-12-27T10:05:22.836Z,8.17
2022-12-27T10:07:02.638Z,8.24
2022-12-27T10:08:42.416Z,8.29
2022-12-27T10:10:22.070Z,8.31
2022-12-27T10:12:02.062Z,8.39
2022-12-27T10:13:41.667Z,8.49
2022-12-27T10:15:21.448Z,8.59
2022-12-27T10:17:01.185Z,8.67
2022-12-27T10:18:40.926Z,8.75
2022-12-27T10:20:20.709Z,8.84
2022-12-27T10:22:00.559Z,8.93
2022-12-27T10:23:40.392Z,9.01
2022-12-27T10:25:20.013Z,9.09
2022-12-27T10:26:59.773Z,9.14
2022-12-27T10:28:39.605Z,9.2
2022-12-27T10:30:19.385Z,9.3
2022-12-27T10:31:59.152Z,9.38
2022-12-27T10:33:38.959Z,9.46
2022-12-27T10:35:18.715Z,9.51
2022-12-27T10:36:58.448Z,9.56
2022-12-27T10:38:38.269Z,9.62
2022-12-27T10:40:18.012Z,9.71
2022-12-27T10:41:57.711Z,9.76
2022-12-27T10:43:37.484Z,9.84
2022-12-27T10:45:17.231Z,9.87
2022-12-27T10:46:57.070Z,9.95
2022-12-27T10:48:36.783Z,10
2022-12-27T10:50:16.590Z,10.04
2022-12-27T10:51:56.314Z,10.08
2022-12-27T10:53:36.113Z,10.12
2022-12-27T10:55:15.870Z,10.12
2022-12-27T10:56:55.830Z,10.16
2022-12-27T10:58:35.402Z,10.2
2022-12-27T11:00:15.235Z,10.24
2022-12-27T11:01:55.017Z,10.3
2022-12-27T11:03:34.755Z,10.34
2022-12-27T11:05:14.485Z,10.39
2022-12-27T11:06:54.261Z,10.41
2022-12-27T11:08:34.037Z,10.47
2022-12-27T11:10:13.869Z,10.54
2022-12-27T11:11:53.637Z,10.55
2022-12-27T11:13:33.372Z,10.59
2022-12-27T11:15:13.113Z,10.63
2022-12-27T11:16:52.873Z,10.66
2022-12-27T11:18:32.640Z,10.69
2022-12-27T11:20:12.407Z,10.73
2022-12-27T11:21:52.255Z,10.71
2022-12-27T11:23:32.011Z,10.7
2022-12-27T11:25:11.729Z,10.65
2022-12-27T11:26:51.501Z,10.64
2022-12-27T11:28:31.385Z,10.64
2022-12-27T11:30:11.175Z,10.66
2022-12-27T11:31:50.798Z,10.68
2022-12-27T11:33:30.592Z,10.66
2022-12-27T11:35:10.400Z,10.64
2022-12-27T11:36:50.210Z,10.59
2022-12-27T11:38:30.022Z,10.59
2022-12-27T11:40:09.662Z,10.54
2022-12-27T11:41:49.433Z,10.52
2022-12-27T11:43:29.264Z,10.43
2022-12-27T11:45:09.036Z,10.41
2022-12-27T11:46:48.925Z,10.39
2022-12-27T11:48:28.540Z,10.34
2022-12-27T11:50:08.356Z,10.3
2022-12-27T11:51:48.106Z,10.29
2022-12-27T11:53:27.845Z,10.24
2022-12-27T11:55:07.605Z,10.24
2022-12-27T11:56:47.445Z,10.18
2022-12-27T11:58:27.144Z,10.18
2022-12-27T12:00:06.931Z,10.17
2022-12-27T12:01:46.679Z,10.16
2022-12-27T12:03:26.502Z,10.14
2022-12-27T12:05:06.207Z,10.13
2022-12-27T12:06:46.090Z,10.13
2022-12-27T12:08:25.764Z,10.13
2022-12-27T12:10:05.534Z,10.07
2022-12-27T12:11:45.298Z,10.08
2022-12-27T12:13:25.118Z,10.05
2022-12-27T12:15:04.914Z,10.05
2022-12-27T12:16:44.641Z,10.05
2022-12-27T12:18:24.391Z,10.04
2022-12-27T12:20:04.211Z,10.04
2022-12-27T12:21:44.061Z,10.02
2022-12-27T12:23:23.742Z,10.01
2022-12-27T12:25:03.590Z,10.02
2022-12-27T12:26:43.244Z,10.01
2022-12-27T12:28:22.988Z,10
2022-12-27T12:30:02.787Z,10
2022-12-27T12:31:42.560Z,9.93
2022-12-27T12:33:22.374Z,9.91
2022-12-27T12:35:02.148Z,9.91
2022-12-27T12:36:41.922Z,9.92
2022-12-27T12:38:21.627Z,10
2022-12-27T12:40:01.374Z,10.01
2022-12-27T12:41:41.148Z,9.99
2022-12-27T12:43:20.988Z,10.02
2022-12-27T12:45:00.693Z,10
2022-12-27T12:46:40.468Z,10.02
2022-12-27T12:48:20.341Z,10.02
2022-12-27T12:50:00.013Z,10
2022-12-27T12:51:39.774Z,10
2022-12-27T12:53:19.556Z,9.99
2022-12-27T12:54:59.390Z,9.97
2022-12-27T12:56:39.151Z,9.95
2022-12-27T12:58:18.916Z,9.96
2022-12-27T12:59:58.708Z,9.95
2022-12-27T13:01:38.400Z,9.93
2022-12-27T13:03:18.194Z,9.93
2022-12-27T13:04:57.936Z,9.93
2022-12-27T13:06:37.715Z,9.95
2022-12-27T13:08:17.500Z,9.91
2022-12-27T13:09:57.346Z,9.93
2022-12-27T13:11:37.017Z,9.91
2022-12-27T13:13:16.779Z,9.89
2022-12-27T13:14:56.637Z,9.88
2022-12-27T13:16:36.429Z,9.88
2022-12-27T13:18:16.093Z,9.89
2022-12-27T13:19:55.877Z,9.91
2022-12-27T13:22:00.986Z,9.88
2022-12-27T13:23:39.207Z,9.84
2022-12-27T13:25:18.980Z,9.85
2022-12-27T13:26:58.773Z,9.89
2022-12-27T13:28:38.530Z,9.95
2022-12-27T13:30:18.239Z,9.97
2022-12-27T13:31:58.006Z,10.04
2022-12-27T13:33:37.789Z,10.1
2022-12-27T13:35:17.545Z,10.1
2022-12-27T13:36:57.309Z,10.12
2022-12-27T13:38:37.090Z,10.12
2022-12-27T13:40:16.890Z,10.09
2022-12-27T13:41:56.638Z,10.08
2022-12-27T13:43:36.406Z,10.05
2022-12-27T13:45:16.193Z,10.05
2022-12-27T13:46:55.944Z,10.06
2022-12-27T13:48:35.713Z,10.03
2022-12-27T13:50:15.474Z,10.04
2022-12-27T13:51:55.265Z,10.01
2022-12-27T13:53:35.040Z,10
2022-12-27T13:55:14.793Z,10.02
2022-12-27T13:56:54.696Z,9.99
2022-12-27T13:58:34.340Z,9.93
2022-12-27T14:00:14.117Z,9.93
2022-12-27T14:01:53.871Z,9.95
2022-12-27T14:03:33.667Z,9.93
2022-12-27T14:05:13.425Z,9.93
2022-12-27T14:06:53.180Z,9.91
2022-12-27T14:08:32.951Z,9.91
2022-12-27T14:10:12.748Z,9.89
2022-12-27T14:11:52.514Z,9.92
2022-12-27T14:13:32.258Z,9.89
2022-12-27T14:15:12.044Z,9.91
2022-12-27T14:16:51.804Z,9.91
2022-12-27T14:18:31.576Z,9.89
2022-12-27T14:20:11.347Z,9.89
2022-12-27T14:21:51.111Z,9.89
2022-12-27T14:23:30.872Z,9.89
2022-12-27T14:25:10.699Z,9.88
2022-12-27T14:26:50.427Z,9.84
2022-12-27T14:28:30.197Z,9.85
2022-12-27T14:30:09.969Z,9.85
2022-12-27T14:31:49.745Z,9.82
2022-12-27T14:33:29.488Z,9.84
2022-12-27T14:35:09.270Z,9.79
2022-12-27T14:36:49.040Z,9.79
2022-12-27T14:38:28.808Z,9.8
2022-12-27T14:40:08.559Z,9.75
2022-12-27T14:41:48.370Z,9.75
2022-12-27T14:43:28.116Z,9.77
2022-12-27T14:45:07.869Z,9.72
2022-12-27T14:46:47.665Z,9.74
2022-12-27T14:48:27.414Z,9.72
2022-12-27T14:50:07.185Z,9.72
2022-12-27T14:51:46.949Z,9.71
2022-12-27T14:53:26.728Z,9.7
2022-12-27T14:55:06.493Z,9.7
2022-12-27T14:56:46.252Z,9.68
2022-12-27T14:58:26.022Z,9.68
2022-12-27T15:00:05.795Z,9.68
2022-12-27T15:01:45.557Z,9.64
2022-12-27T15:03:25.386Z,9.66
2022-12-27T15:05:05.086Z,9.6
2022-12-27T15:06:44.898Z,9.62
2022-12-27T15:08:24.616Z,9.6
2022-12-27T15:10:04.397Z,9.6
2022-12-27T15:11:44.175Z,9.59
2022-12-27T15:13:23.925Z,9.58
2022-12-27T15:15:03.701Z,9.56
2022-12-27T15:16:43.459Z,9.58
2022-12-27T15:18:23.245Z,9.58
2022-12-27T15:20:03.027Z,9.56
2022-12-27T15:21:42.756Z,9.53
2022-12-27T15:23:22.529Z,9.52
2022-12-27T15:25:02.326Z,9.5
2022-12-27T15:26:42.080Z,9.49
2022-12-27T15:28:21.834Z,9.45
2022-12-27T15:30:01.635Z,9.43
2022-12-27T15:31:41.365Z,9.38
2022-12-27T15:33:21.177Z,9.35
2022-12-27T15:35:00.908Z,9.32
2022-12-27T15:36:40.674Z,9.29
2022-12-27T15:38:20.433Z,9.25
2022-12-27T15:40:00.234Z,9.21
2022-12-27T15:41:40.040Z,9.2
2022-12-27T15:43:19.734Z,9.16
2022-12-27T15:44:59.512Z,9.14
2022-12-27T15:46:39.292Z,9.1
2022-12-27T15:48:19.046Z,9.09
2022-12-27T15:49:58.861Z,9.05
2022-12-27T15:51:38.566Z,9.03
2022-12-27T15:53:18.385Z,9
2022-12-27T15:54:58.131Z,8.97
2022-12-27T15:56:37.886Z,8.96
2022-12-27T15:58:17.645Z,8.92
2022-12-27T15:59:57.403Z,8.89
2022-12-27T16:01:37.181Z,8.88
2022-12-27T16:03:16.940Z,8.85
2022-12-27T16:04:56.716Z,8.84
2022-12-27T16:06:36.510Z,8.8
2022-12-27T16:08:16.247Z,8.78
2022-12-27T16:09:56.034Z,8.77
2022-12-27T16:11:35.795Z,8.72
2022-12-27T16:13:15.541Z,8.72
2022-12-27T16:14:55.325Z,8.68
2022-12-27T16:16:35.077Z,8.68
2022-12-27T16:18:14.851Z,8.66
2022-12-27T16:19:54.642Z,8.66
2022-12-27T16:21:34.386Z,8.63
2022-12-27T16:23:14.192Z,8.59
2022-12-27T16:24:53.943Z,8.57
2022-12-27T16:26:33.776Z,8.55
2022-12-27T16:28:13.448Z,8.55
2022-12-27T16:29:53.225Z,8.53
2022-12-27T16:31:32.994Z,8.51
2022-12-27T16:33:12.777Z,8.47
2022-12-27T16:34:52.576Z,8.46
2022-12-27T16:36:32.337Z,8.43
2022-12-27T16:38:12.063Z,8.43
2022-12-27T16:39:51.849Z,8.41
2022-12-27T16:41:31.586Z,8.39
2022-12-27T16:43:11.374Z,8.38
2022-12-27T16:44:51.148Z,8.37
2022-12-27T16:46:30.905Z,8.33
2022-12-27T16:48:10.670Z,8.33
2022-12-27T16:49:50.430Z,8.3
2022-12-27T16:51:30.207Z,8.28
2022-12-27T16:53:10.087Z,8.26
2022-12-27T16:54:49.739Z,8.24
2022-12-27T16:56:29.526Z,8.22
2022-12-27T16:58:09.269Z,8.21
2022-12-27T16:59:49.025Z,8.18
2022-12-27T17:01:28.801Z,8.17
2022-12-27T17:03:08.596Z,8.14
2022-12-27T17:04:48.337Z,8.14
2022-12-27T17:06:28.099Z,8.14
2022-12-27T17:08:07.872Z,8.12
2022-12-27T17:09:47.666Z,8.09
2022-12-27T17:11:27.411Z,8.07
2022-12-27T17:13:07.176Z,8.05
2022-12-27T17:14:46.987Z,8.04
2022-12-27T17:16:26.700Z,8.03
2022-12-27T17:18:06.481Z,8.02
2022-12-27T17:19:46.253Z,8
2022-12-27T17:21:26.018Z,7.96
2022-12-27T17:23:05.772Z,7.95
2022-12-27T17:24:45.678Z,7.95
2022-12-27T17:26:25.313Z,7.92
2022-12-27T17:28:05.090Z,7.92
2022-12-27T17:29:44.842Z,7.89
2022-12-27T17:31:24.703Z,7.88
2022-12-27T17:33:04.440Z,7.86
2022-12-27T17:34:44.149Z,7.84
2022-12-27T17:36:23.904Z,7.85
2022-12-27T17:38:03.685Z,7.83
2022-12-27T17:39:43.516Z,7.8
2022-12-27T17:41:23.211Z,7.78
2022-12-27T17:43:02.995Z,7.77
2022-12-27T17:44:42.758Z,7.75
2022-12-27T17:46:22.525Z,7.75
2022-12-27T17:48:02.300Z,7.72
2022-12-27T17:49:42.125Z,7.71
2022-12-27T17:51:21.817Z,7.7
2022-12-27T17:53:01.588Z,7.67
2022-12-27T17:54:41.359Z,7.66
2022-12-27T17:56:21.110Z,7.65
2022-12-27T17:58:00.896Z,7.63
2022-12-27T17:59:40.687Z,7.62
2022-12-27T18:01:20.430Z,7.63
2022-12-27T18:03:00.190Z,7.6
2022-12-27T18:04:39.991Z,7.57
2022-12-27T18:06:19.721Z,7.56
2022-12-27T18:07:59.513Z,7.54
2022-12-27T18:09:39.241Z,7.55
2022-12-27T18:11:19.042Z,7.54
2022-12-27T18:12:58.802Z,7.52
2022-12-27T18:14:38.550Z,7.49
2022-12-27T18:16:18.330Z,7.49
2022-12-27T18:17:58.130Z,7.48
2022-12-27T18:19:37.960Z,7.44
2022-12-27T18:21:17.636Z,7.44
2022-12-27T18:22:57.403Z,7.42
2022-12-27T18:24:37.185Z,7.4
2022-12-27T18:26:16.933Z,7.4
2022-12-27T18:27:56.698Z,7.37
2022-12-27T18:29:36.493Z,7.36
2022-12-27T18:31:16.241Z,7.36
2022-12-27T18:32:56.001Z,7.33
2022-12-27T18:34:35.772Z,7.33
2022-12-27T18:36:15.553Z,7.32
2022-12-27T18:37:55.296Z,7.3
2022-12-27T18:39:35.075Z,7.28
2022-12-27T18:41:14.832Z,7.25
2022-12-27T18:42:54.645Z,7.26
2022-12-27T18:44:34.370Z,7.23
2022-12-27T18:46:14.145Z,7.24
2022-12-27T18:47:53.897Z,7.19
2022-12-27T18:49:33.668Z,7.19
2022-12-27T18:51:13.457Z,7.19
2022-12-27T18:52:53.205Z,7.16
2022-12-27T18:54:32.965Z,7.15
2022-12-27T18:56:12.774Z,7.13
2022-12-27T18:57:52.512Z,7.13
2022-12-27T18:59:32.336Z,7.13
2022-12-27T19:01:12.072Z,7.09
2022-12-27T19:02:51.867Z,7.08
2022-12-27T19:04:31.574Z,7.07
2022-12-27T19:06:11.345Z,7.08
2022-12-27T19:07:51.166Z,7.05
2022-12-27T19:09:30.886Z,7.05
2022-12-27T19:11:10.658Z,7.02
2022-12-27T19:12:50.416Z,7.03
2022-12-27T19:14:30.182Z,7.01
2022-12-27T19:16:09.945Z,7
2022-12-27T19:17:49.831Z,6.98
2022-12-27T19:19:29.507Z,6.97
2022-12-27T19:21:09.273Z,6.94
2022-12-27T19:22:49.014Z,6.95
2022-12-27T19:24:28.787Z,6.92
2022-12-27T19:26:08.553Z,6.93
2022-12-27T19:27:48.373Z,6.91
2022-12-27T19:29:28.089Z,6.9
2022-12-27T19:31:07.971Z,6.88
2022-12-27T19:32:47.612Z,6.87
2022-12-27T19:34:27.388Z,6.85
2022-12-27T19:36:07.154Z,6.84
2022-12-27T19:37:46.927Z,6.84
2022-12-27T19:39:26.685Z,6.81
2022-12-27T19:41:06.521Z,6.82
2022-12-27T19:42:46.222Z,6.81
2022-12-27T19:44:26.003Z,6.79
2022-12-27T19:46:05.759Z,6.79
2022-12-27T19:47:45.516Z,6.77
2022-12-27T19:49:25.288Z,6.77
2022-12-27T19:51:05.069Z,6.76
2022-12-27T19:52:44.994Z,6.74
2022-12-27T19:54:24.592Z,6.72
2022-12-27T19:56:04.505Z,6.71
2022-12-27T19:57:44.321Z,6.73
2022-12-27T19:59:24.170Z,6.7
2022-12-27T20:01:03.823Z,6.68
2022-12-27T20:02:43.610Z,6.7
2022-12-27T20:04:23.383Z,6.68
2022-12-27T20:06:02.968Z,6.67
2022-12-27T20:07:42.943Z,6.65
2022-12-27T20:09:22.692Z,6.65
2022-12-27T20:11:02.384Z,6.62
2022-12-27T20:12:42.173Z,6.62
2022-12-27T20:14:21.937Z,6.6
2022-12-27T20:16:01.723Z,6.6
2022-12-27T20:17:41.402Z,6.59
2022-12-27T20:19:21.226Z,6.59
2022-12-27T20:21:00.981Z,6.57
2022-12-27T20:22:40.841Z,6.55
2022-12-27T20:24:20.425Z,6.55
2022-12-27T20:26:00.259Z,6.52
2022-12-27T20:27:39.985Z,6.51
2022-12-27T20:29:19.777Z,6.51
2022-12-27T20:30:59.558Z,6.5
2022-12-27T20:32:39.242Z,6.51
2022-12-27T20:34:19.144Z,6.48
2022-12-27T20:35:58.808Z,6.48
2022-12-27T20:37:38.668Z,6.47
2022-12-27T20:39:18.332Z,6.45
2022-12-27T20:40:58.211Z,6.45
2022-12-27T20:42:38.020Z,6.45
2022-12-27T20:44:17.732Z,6.41
2022-12-27T20:45:57.398Z,6.44
2022-12-27T20:47:37.140Z,6.42
2022-12-27T20:49:16.920Z,6.39
2022-12-27T20:50:56.710Z,6.4
2022-12-27T20:52:36.450Z,6.37
2022-12-27T20:54:16.217Z,6.37
2022-12-27T20:55:55.986Z,6.36
2022-12-27T20:57:35.740Z,6.34
2022-12-27T20:59:15.521Z,6.36
2022-12-27T21:00:55.279Z,6.33
2022-12-27T21:02:35.037Z,6.34
2022-12-27T21:04:14.814Z,6.34
2022-12-27T21:05:54.608Z,6.32
2022-12-27T21:07:34.365Z,6.31
2022-12-27T21:09:14.114Z,6.3
2022-12-27T21:10:53.887Z,6.3
2022-12-27T21:12:33.658Z,6.29
2022-12-27T21:14:13.423Z,6.27
2022-12-27T21:15:53.186Z,6.27
2022-12-27T21:17:32.943Z,6.27
2022-12-27T21:19:12.718Z,6.27
2022-12-27T21:20:52.490Z,6.27
2022-12-27T21:22:32.249Z,6.26
2022-12-27T21:24:12.024Z,6.24
2022-12-27T21:25:51.789Z,6.26
2022-12-27T21:27:31.557Z,6.23
2022-12-27T21:29:11.330Z,6.25
2022-12-27T21:30:51.092Z,6.24
2022-12-27T21:32:30.863Z,6.22
2022-12-27T21:34:10.641Z,6.21
2022-12-27T21:35:50.397Z,6.21
2022-12-27T21:37:30.167Z,6.23
2022-12-27T21:39:09.932Z,6.22
2022-12-27T21:40:49.693Z,6.2
2022-12-27T21:42:29.470Z,6.2
2022-12-27T21:44:09.380Z,6.21
2022-12-27T21:45:48.982Z,6.18
2022-12-27T21:47:28.771Z,6.19
2022-12-27T21:49:08.527Z,6.17
2022-12-27T21:50:48.296Z,6.18
2022-12-27T21:52:28.058Z,6.16
2022-12-27T21:54:07.843Z,6.18
2022-12-27T21:55:47.607Z,6.17
2022-12-27T21:57:27.369Z,6.14
2022-12-27T21:59:07.128Z,6.14
2022-12-27T22:00:46.914Z,6.15
2022-12-27T22:02:26.664Z,6.15
2022-12-27T22:04:06.436Z,6.14
2022-12-27T22:05:46.213Z,6.16
2022-12-27T22:07:26.139Z,6.14
2022-12-27T22:09:05.758Z,6.15
2022-12-27T22:10:45.541Z,6.14